Time,TemperatureF,DewpointF,PressureIn,WindDirection,WindDirectionDegrees,WindSpeedMPH,WindSpeedGustMPH,Humidity,HourlyPrecipIn,Conditions,Clouds,dailyrainin,SoftwareType,DateUTC
2013-06-08 00:02:00,65.0,31.0,-100.00,SW,230,22.0,30.0,27,0.00,,,-99.99,,2013-06-08 06:02:00,
2013-06-08 00:12:00,65.0,31.0,-100.00,SW,233,22.0,30.0,28,0.00,,,-99.99,,2013-06-08 06:12:00,
2013-06-08 00:22:00,64.0,31.0,-100.00,SW,234,21.0,29.0,28,0.00,,,-99.99,,2013-06-08 06:22:00,
2013-06-08 00:32:00,63.0,31.0,-100.00,WSW,239,19.0,29.0,29,0.00,,,-99.99,,2013-06-08 06:32:00,
2013-06-08 00:42:00,63.0,30.0,-100.00,SW,236,19.0,27.0,29,0.00,,,-99.99,,2013-06-08 06:42:00,
2013-06-08 00:52:00,63.0,30.0,-100.00,SW,233,19.0,27.0,29,0.00,,,-99.99,,2013-06-08 06:52:00,
2013-06-08 01:02:00,63.0,31.0,-100.00,SW,229,22.0,29.0,30,0.00,,,-99.99,,2013-06-08 07:02:00,
2013-06-08 01:12:00,63.0,30.0,-100.00,SW,224,22.0,30.0,29,0.00,,,-99.99,,2013-06-08 07:12:00,
2013-06-08 01:22:00,63.0,30.0,-100.00,SW,227,24.0,31.0,29,0.00,,,-99.99,,2013-06-08 07:22:00,
2013-06-08 01:32:00,63.0,30.0,-100.00,SW,229,26.0,33.0,29,0.00,,,-99.99,,2013-06-08 07:32:00,
2013-06-08 01:42:00,63.0,30.0,-100.00,SW,227,26.0,34.0,29,0.00,,,-99.99,,2013-06-08 07:42:00,
2013-06-08 01:52:00,62.0,31.0,-100.00,SW,226,24.0,31.0,30,0.00,,,-99.99,,2013-06-08 07:52:00,
2013-06-08 02:02:00,62.0,31.0,-100.00,SW,226,24.0,34.0,31,0.00,,,-99.99,,2013-06-08 08:02:00,
2013-06-08 02:12:00,62.0,31.0,-100.00,SW,224,25.0,34.0,31,0.00,,,-99.99,,2013-06-08 08:12:00,
2013-06-08 02:22:00,62.0,32.0,-100.00,SW,224,24.0,32.0,32,0.00,,,-99.99,,2013-06-08 08:22:00,
2013-06-08 02:32:00,62.0,32.0,-100.00,SW,222,22.0,30.0,32,0.00,,,-99.99,,2013-06-08 08:32:00,
2013-06-08 02:42:00,61.0,32.0,-100.00,SW,222,20.0,27.0,33,0.00,,,-99.99,,2013-06-08 08:42:00,
2013-06-08 02:52:00,61.0,32.0,-100.00,SW,215,19.0,27.0,33,0.00,,,-99.99,,2013-06-08 08:52:00,
2013-06-08 03:02:00,61.0,33.0,-100.00,SW,215,19.0,26.0,35,0.00,,,-99.99,,2013-06-08 09:02:00,
2013-06-08 03:12:00,61.0,33.0,-100.00,SW,215,18.0,24.0,35,0.00,,,-99.99,,2013-06-08 09:12:00,
2013-06-08 03:22:00,61.0,34.0,-100.00,SSW,212,17.0,24.0,36,0.00,,,-99.99,,2013-06-08 09:22:00,
2013-06-08 03:33:00,60.0,34.0,-100.00,SSW,210,16.0,23.0,38,0.00,,,-99.99,,2013-06-08 09:33:00,
2013-06-08 03:42:00,60.0,35.0,-100.00,SSW,212,16.0,24.0,38,0.00,,,-99.99,,2013-06-08 09:42:00,
2013-06-08 03:52:00,60.0,35.0,-100.00,SSW,213,19.0,26.0,38,0.00,,,-99.99,,2013-06-08 09:52:00,
2013-06-08 04:03:00,60.0,35.0,-100.00,SSW,212,21.0,28.0,39,0.00,,,-99.99,,2013-06-08 10:03:00,
2013-06-08 04:12:00,60.0,35.0,-100.00,SSW,212,21.0,28.0,39,0.00,,,-99.99,,2013-06-08 10:12:00,
2013-06-08 04:22:00,60.0,35.0,-100.00,SSW,213,21.0,32.0,40,0.00,,,-99.99,,2013-06-08 10:22:00,
2013-06-08 04:33:00,60.0,36.0,-100.00,SSW,213,21.0,32.0,40,0.00,,,-99.99,,2013-06-08 10:33:00,
2013-06-08 04:42:00,59.0,36.0,-100.00,SSW,209,21.0,28.0,41,0.00,,,-99.99,,2013-06-08 10:42:00,
2013-06-08 04:52:00,60.0,36.0,-100.00,SSW,210,21.0,31.0,41,0.00,,,-99.99,,2013-06-08 10:52:00,
2013-06-08 05:02:00,60.0,36.0,-100.00,SSW,210,23.0,30.0,40,0.00,,,-99.99,,2013-06-08 11:02:00,
2013-06-08 05:12:00,60.0,36.0,-100.00,SW,215,21.0,37.0,41,0.00,,,-99.99,,2013-06-08 11:12:00,
2013-06-08 05:22:00,59.0,36.0,-100.00,SW,223,21.0,32.0,41,0.00,,,-99.99,,2013-06-08 11:22:00,
2013-06-08 05:32:00,59.0,36.0,-100.00,SW,222,21.0,29.0,42,0.00,,,-99.99,,2013-06-08 11:32:00,
2013-06-08 05:42:00,54.0,39.0,-100.00,West,268,17.0,26.0,56,0.00,,,-99.99,,2013-06-08 11:42:00,
2013-06-08 05:52:00,52.0,40.0,-100.00,WNW,282,13.0,16.0,62,0.00,,,-99.99,,2013-06-08 11:52:00,
2013-06-08 06:02:00,51.0,41.0,-100.00,WNW,287,11.0,16.0,67,0.00,,,-99.99,,2013-06-08 12:02:00,
2013-06-08 06:12:00,50.0,40.0,-100.00,WNW,299,11.0,15.0,69,0.00,,,-99.99,,2013-06-08 12:12:00,
2013-06-08 06:22:00,49.0,41.0,-100.00,WNW,291,7.0,11.0,74,0.00,,,-99.99,,2013-06-08 12:22:00,
2013-06-08 06:32:00,49.0,42.0,-100.00,WNW,292,11.0,14.0,77,0.00,,,-99.99,,2013-06-08 12:32:00,
2013-06-08 06:42:00,50.0,43.0,-100.00,WNW,291,12.0,15.0,76,0.00,,,-99.99,,2013-06-08 12:42:00,
2013-06-08 06:52:00,51.0,42.0,-100.00,WNW,287,12.0,16.0,73,0.00,,,-99.99,,2013-06-08 12:52:00,
2013-06-08 07:02:00,50.0,43.0,-100.00,WNW,289,17.0,23.0,77,0.00,,,-99.99,,2013-06-08 13:02:00,
2013-06-08 07:12:00,50.0,43.0,-100.00,WNW,285,18.0,23.0,79,0.00,,,-99.99,,2013-06-08 13:12:00,
2013-06-08 07:22:00,49.0,44.0,-100.00,WNW,294,17.0,22.0,82,0.00,,,-99.99,,2013-06-08 13:22:00,
2013-06-08 07:32:00,49.0,44.0,-100.00,NW,304,17.0,21.0,82,0.00,,,-99.99,,2013-06-08 13:32:00,
2013-06-08 07:42:00,49.0,43.0,-100.00,NW,308,17.0,22.0,78,0.00,,,-99.99,,2013-06-08 13:42:00,
2013-06-08 07:52:00,49.0,43.0,-100.00,NW,305,15.0,19.0,79,0.00,,,-99.99,,2013-06-08 13:52:00,
2013-06-08 08:02:00,49.0,42.0,-100.00,WNW,288,12.0,16.0,76,0.00,,,-99.99,,2013-06-08 14:02:00,
2013-06-08 08:22:00,49.0,40.0,-100.00,WSW,257,11.0,14.0,70,0.00,,,-99.99,,2013-06-08 14:22:00,
2013-06-08 08:32:00,48.0,40.0,-100.00,WSW,248,10.0,14.0,71,0.00,,,-99.99,,2013-06-08 14:32:00,
2013-06-08 08:42:00,49.0,40.0,-100.00,WSW,253,10.0,14.0,71,0.00,,,-99.99,,2013-06-08 14:42:00,
2013-06-08 08:52:00,50.0,40.0,-100.00,WSW,254,10.0,14.0,69,0.00,,,-99.99,,2013-06-08 14:52:00,
2013-06-08 09:02:00,50.0,40.0,-100.00,West,270,9.0,14.0,68,0.00,,,-99.99,,2013-06-08 15:02:00,
2013-06-08 09:12:00,50.0,40.0,-100.00,WSW,247,9.0,13.0,67,0.00,,,-99.99,,2013-06-08 15:12:00,
2013-06-08 09:22:00,51.0,39.0,-100.00,West,272,9.0,15.0,64,0.00,,,-99.99,,2013-06-08 15:22:00,
2013-06-08 09:32:00,51.0,39.0,-100.00,West,281,12.0,19.0,63,0.00,,,-99.99,,2013-06-08 15:32:00,
2013-06-08 09:42:00,51.0,40.0,-100.00,WNW,285,12.0,19.0,65,0.00,,,-99.99,,2013-06-08 15:42:00,
2013-06-08 09:53:00,52.0,40.0,-100.00,West,277,11.0,16.0,62,0.00,,,-99.99,,2013-06-08 15:53:00,
2013-06-08 10:03:00,53.0,40.0,-100.00,West,278,11.0,16.0,61,0.00,,,-99.99,,2013-06-08 16:03:00,
2013-06-08 10:12:00,53.0,40.0,-100.00,West,278,11.0,16.0,62,0.00,,,-99.99,,2013-06-08 16:12:00,
2013-06-08 10:23:00,53.0,40.0,-100.00,WSW,258,11.0,15.0,60,0.00,,,-99.99,,2013-06-08 16:23:00,
2013-06-08 10:33:00,55.0,39.0,-100.00,West,275,11.0,18.0,56,0.00,,,-99.99,,2013-06-08 16:33:00,
2013-06-08 10:42:00,54.0,39.0,-100.00,West,270,12.0,18.0,58,0.00,,,-99.99,,2013-06-08 16:42:00,
2013-06-08 10:53:00,55.0,40.0,-100.00,WSW,257,10.0,15.0,57,0.00,,,-99.99,,2013-06-08 16:53:00,
2013-06-08 11:02:00,55.0,39.0,-100.00,West,274,10.0,14.0,55,0.00,,,-99.99,,2013-06-08 17:02:00,
2013-06-08 11:12:00,56.0,40.0,-100.00,West,270,9.0,14.0,54,0.00,,,-99.99,,2013-06-08 17:12:00,
2013-06-08 11:22:00,56.0,39.0,-100.00,WNW,289,10.0,18.0,52,0.00,,,-99.99,,2013-06-08 17:22:00,
2013-06-08 11:32:00,57.0,38.0,-100.00,West,281,12.0,15.0,50,0.00,,,-99.99,,2013-06-08 17:32:00,
2013-06-08 11:42:00,58.0,38.0,-100.00,WNW,298,11.0,18.0,47,0.00,,,-99.99,,2013-06-08 17:42:00,
2013-06-08 11:52:00,59.0,38.0,-100.00,WNW,287,12.0,19.0,45,0.00,,,-99.99,,2013-06-08 17:52:00,
2013-06-08 12:02:00,58.0,37.0,-100.00,West,280,12.0,20.0,46,0.00,,,-99.99,,2013-06-08 18:02:00,
2013-06-08 12:12:00,59.0,37.0,-100.00,West,274,12.0,20.0,44,0.00,,,-99.99,,2013-06-08 18:12:00,
2013-06-08 12:22:00,58.0,37.0,-100.00,WNW,282,14.0,26.0,47,0.00,,,-99.99,,2013-06-08 18:22:00,
2013-06-08 12:32:00,59.0,36.0,-100.00,West,274,13.0,22.0,43,0.00,,,-99.99,,2013-06-08 18:32:00,
2013-06-08 12:42:00,58.0,38.0,-100.00,WNW,291,14.0,22.0,46,0.00,,,-99.99,,2013-06-08 18:42:00,
2013-06-08 12:52:00,58.0,38.0,-100.00,WNW,285,13.0,17.0,47,0.00,,,-99.99,,2013-06-08 18:52:00,
2013-06-08 13:03:00,59.0,32.0,-100.00,West,263,16.0,26.0,37,0.00,,,-99.99,,2013-06-08 19:03:00,
2013-06-08 13:12:00,60.0,32.0,-100.00,WSW,251,21.0,28.0,34,0.00,,,-99.99,,2013-06-08 19:12:00,
2013-06-08 13:22:00,60.0,32.0,-100.00,West,274,18.0,30.0,34,0.00,,,-99.99,,2013-06-08 19:22:00,
2013-06-08 13:32:00,63.0,33.0,-100.00,West,267,19.0,28.0,32,0.00,,,-99.99,,2013-06-08 19:32:00,
2013-06-08 13:42:00,61.0,30.0,-100.00,West,260,19.0,27.0,31,0.00,,,-99.99,,2013-06-08 19:42:00,
2013-06-08 13:52:00,63.0,32.0,-100.00,West,263,17.0,29.0,32,0.00,,,-99.99,,2013-06-08 19:52:00,
2013-06-08 14:02:00,62.0,31.0,-100.00,WSW,253,20.0,29.0,31,0.00,,,-99.99,,2013-06-08 20:02:00,
2013-06-08 14:12:00,62.0,31.0,-100.00,WSW,256,21.0,29.0,31,0.00,,,-99.99,,2013-06-08 20:12:00,
2013-06-08 14:22:00,62.0,32.0,-100.00,WSW,243,17.0,26.0,33,0.00,,,-99.99,,2013-06-08 20:22:00,
2013-06-08 14:32:00,64.0,30.0,-100.00,WSW,257,20.0,32.0,28,0.00,,,-99.99,,2013-06-08 20:32:00,
2013-06-08 14:42:00,63.0,30.0,-100.00,WSW,253,24.0,34.0,28,0.00,,,-99.99,,2013-06-08 20:42:00,
2013-06-08 14:52:00,63.0,28.0,-100.00,WSW,248,24.0,34.0,26,0.00,,,-99.99,,2013-06-08 20:52:00,
2013-06-08 15:02:00,64.0,29.0,-100.00,West,261,22.0,32.0,26,0.00,,,-99.99,,2013-06-08 21:02:00,
2013-06-08 15:12:00,64.0,29.0,-100.00,West,261,22.0,32.0,26,0.00,,,-99.99,,2013-06-08 21:12:00,
2013-06-08 15:22:00,64.0,27.0,-100.00,WSW,258,24.0,35.0,25,0.00,,,-99.99,,2013-06-08 21:22:00,
2013-06-08 15:33:00,64.0,26.0,-100.00,West,274,22.0,34.0,24,0.00,,,-99.99,,2013-06-08 21:33:00,
2013-06-08 15:43:00,65.0,27.0,-100.00,West,271,26.0,35.0,23,0.00,,,-99.99,,2013-06-08 21:43:00,
2013-06-08 15:52:00,65.0,26.0,-100.00,West,267,26.0,37.0,23,0.00,,,-99.99,,2013-06-08 21:52:00,
2013-06-08 16:02:00,66.0,26.0,-100.00,WSW,258,23.0,32.0,22,0.00,,,-99.99,,2013-06-08 22:02:00,
2013-06-08 16:12:00,67.0,27.0,-100.00,West,272,22.0,29.0,22,0.00,,,-99.99,,2013-06-08 22:12:00,
2013-06-08 16:22:00,66.0,27.0,-100.00,West,260,23.0,40.0,23,0.00,,,-99.99,,2013-06-08 22:22:00,
2013-06-08 16:33:00,66.0,25.0,-100.00,West,267,22.0,30.0,21,0.00,,,-99.99,,2013-06-08 22:33:00,
2013-06-08 16:42:00,66.0,23.0,-100.00,West,265,24.0,35.0,19,0.00,,,-99.99,,2013-06-08 22:42:00,
2013-06-08 16:52:00,67.0,26.0,-100.00,West,277,22.0,29.0,21,0.00,,,-99.99,,2013-06-08 22:52:00,
2013-06-08 17:02:00,67.0,23.0,-100.00,West,270,22.0,32.0,19,0.00,,,-99.99,,2013-06-08 23:02:00,
2013-06-08 17:12:00,66.0,24.0,-100.00,West,274,19.0,30.0,20,0.00,,,-99.99,,2013-06-08 23:12:00,
2013-06-08 17:22:00,67.0,23.0,-100.00,West,270,20.0,32.0,18,0.00,,,-99.99,,2013-06-08 23:22:00,
2013-06-08 17:32:00,67.0,23.0,-100.00,West,271,20.0,30.0,18,0.00,,,-99.99,,2013-06-08 23:32:00,
2013-06-08 17:42:00,67.0,23.0,-100.00,West,280,23.0,34.0,18,0.00,,,-99.99,,2013-06-08 23:42:00,
2013-06-08 17:52:00,66.0,23.0,-100.00,WNW,284,22.0,30.0,19,0.00,,,-99.99,,2013-06-08 23:52:00,
2013-06-08 18:02:00,67.0,24.0,-100.00,WNW,291,18.0,26.0,20,0.00,,,-99.99,,2013-06-09 00:02:00,
2013-06-08 18:12:00,67.0,25.0,-100.00,WNW,287,19.0,27.0,20,0.00,,,-99.99,,2013-06-09 00:12:00,
2013-06-08 18:22:00,67.0,24.0,-100.00,WNW,285,18.0,25.0,20,0.00,,,-99.99,,2013-06-09 00:22:00,
2013-06-08 18:32:00,67.0,25.0,-100.00,WNW,288,15.0,20.0,21,0.00,,,-99.99,,2013-06-09 00:32:00,
2013-06-08 18:42:00,66.0,24.0,-100.00,WNW,294,17.0,22.0,20,0.00,,,-99.99,,2013-06-09 00:42:00,
2013-06-08 18:52:00,66.0,24.0,-100.00,WNW,298,16.0,22.0,20,0.00,,,-99.99,,2013-06-09 00:52:00,
2013-06-08 19:02:00,66.0,24.0,-100.00,WNW,295,14.0,20.0,20,0.00,,,-99.99,,2013-06-09 01:02:00,
2013-06-08 19:12:00,66.0,24.0,-100.00,WNW,298,14.0,19.0,20,0.00,,,-99.99,,2013-06-09 01:12:00,
2013-06-08 19:22:00,65.0,24.0,-100.00,NW,311,13.0,19.0,21,0.00,,,-99.99,,2013-06-09 01:22:00,
2013-06-08 19:32:00,64.0,24.0,-100.00,NW,318,13.0,17.0,21,0.00,,,-99.99,,2013-06-09 01:32:00,
2013-06-08 19:42:00,64.0,24.0,-100.00,NW,325,13.0,16.0,22,0.00,,,-99.99,,2013-06-09 01:42:00,
2013-06-08 19:52:00,63.0,25.0,-100.00,NNW,328,12.0,16.0,23,0.00,,,-99.99,,2013-06-09 01:52:00,
2013-06-08 20:02:00,63.0,26.0,-100.00,NW,325,11.0,16.0,24,0.00,,,-99.99,,2013-06-09 02:02:00,
2013-06-08 20:12:00,62.0,26.0,-100.00,NNW,328,9.0,14.0,25,0.00,,,-99.99,,2013-06-09 02:12:00,
2013-06-08 20:22:00,60.0,26.0,-100.00,NNW,328,8.0,11.0,27,0.00,,,-99.99,,2013-06-09 02:22:00,
2013-06-08 20:32:00,59.0,26.0,-100.00,NNW,335,6.0,8.0,28,0.00,,,-99.99,,2013-06-09 02:32:00,
2013-06-08 20:52:00,58.0,28.0,-100.00,ESE,116,1.0,3.0,31,0.00,,,-99.99,,2013-06-09 02:52:00,
2013-06-08 21:02:00,58.0,27.0,-100.00,SSW,192,2.0,4.0,30,0.00,,,-99.99,,2013-06-09 03:02:00,
2013-06-08 21:12:00,56.0,27.0,-100.00,SSW,196,2.0,5.0,32,0.00,,,-99.99,,2013-06-09 03:12:00,
2013-06-08 21:22:00,54.0,27.0,-100.00,SE,145,4.0,6.0,36,0.00,,,-99.99,,2013-06-09 03:22:00,
2013-06-08 21:33:00,53.0,28.0,-100.00,SE,144,6.0,9.0,38,0.00,,,-99.99,,2013-06-09 03:33:00,
2013-06-08 21:43:00,53.0,27.0,-100.00,SE,143,7.0,9.0,38,0.00,,,-99.99,,2013-06-09 03:43:00,
2013-06-08 21:53:00,52.0,27.0,-100.00,SE,143,7.0,9.0,38,0.00,,,-99.99,,2013-06-09 03:53:00,
2013-06-08 22:03:00,52.0,27.0,-100.00,SSE,147,8.0,11.0,38,0.00,,,-99.99,,2013-06-09 04:03:00,
2013-06-08 22:12:00,51.0,27.0,-100.00,SSE,148,9.0,11.0,38,0.00,,,-99.99,,2013-06-09 04:12:00,
2013-06-08 22:22:00,51.0,26.0,-100.00,SSE,154,4.0,7.0,38,0.00,,,-99.99,,2013-06-09 04:22:00,
2013-06-08 22:33:00,50.0,27.0,-100.00,SE,144,6.0,9.0,39,0.00,,,-99.99,,2013-06-09 04:33:00,
2013-06-08 22:42:00,50.0,26.0,-100.00,SE,143,7.0,10.0,40,0.00,,,-99.99,,2013-06-09 04:42:00,
2013-06-08 22:52:00,50.0,27.0,-100.00,SSE,148,7.0,9.0,40,0.00,,,-99.99,,2013-06-09 04:52:00,
2013-06-08 23:02:00,49.0,26.0,-100.00,SSE,151,6.0,7.0,41,0.00,,,-99.99,,2013-06-09 05:02:00,
2013-06-08 23:12:00,48.0,27.0,-100.00,SE,140,9.0,12.0,43,0.00,,,-99.99,,2013-06-09 05:12:00,
2013-06-08 23:22:00,49.0,26.0,-100.00,SE,133,9.0,12.0,40,0.00,,,-99.99,,2013-06-09 05:22:00,
2013-06-08 23:32:00,49.0,26.0,-100.00,SE,136,7.0,10.0,41,0.00,,,-99.99,,2013-06-09 05:32:00,
2013-06-08 23:42:00,48.0,26.0,-100.00,SE,144,10.0,12.0,42,0.00,,,-99.99,,2013-06-09 05:42:00,
2013-06-08 23:52:00,49.0,26.0,-100.00,SE,137,7.0,11.0,41,0.00,,,-99.99,,2013-06-09 05:52:00,